Chaska, MN (55318)

1:18 AM CDT on April 27, 2017 (GMT -0500)
Hammers Haven | | Change Station

Elev 935 ft 44.81 °N, 93.61 °W | Updated 3 minutes ago

Overcast
Overcast
33.6 °F
Feels Like 28 °F
N
6.0
Wind Variable Wind from WNW
Gusts 7.0 mph

Today
High -- | Low -- °F
--% Chance of Precip.
Yesterday
High -- | Low -- °F
Precip. -- in
Pressure 29.58 in
Visibility 4.0 miles
Clouds Mostly Cloudy 600 ft
Overcast 1200 ft
Windchill 28 °F
Dew Point 32 °F
Humidity 92%
Rainfall 0.00 in
Snow Depth Not available.
6:09 AM 8:14 PM
New Moon, 1% visible
METAR KFCM 270553Z AUTO 33010G18KT 4SM BR BKN006 OVC012 02/00 A2955 RMK AO2 CIG 005V009 SLP015 60000 T00170000 10039 20017 400830017 58011
Pressure 29.58 in
Visibility 4.0 miles
Clouds Mostly Cloudy 600 ft
Overcast 1200 ft
Windchill 28 °F
Dew Point 32 °F
Humidity 92%
Rainfall 0.00 in
Snow Depth Not available.
6:09 AM 8:14 PM
New Moon, 1% visible
METAR KFCM 270553Z AUTO 33010G18KT 4SM BR BKN006 OVC012 02/00 A2955 RMK AO2 CIG 005V009 SLP015 60000 T00170000 10039 20017 400830017 58011

Get Severe Weather Alerts

Thanks for signing up!

Be on the lookout for a verification email in your inbox.

You'll start receiving the daily forecast at 8 AM.

×

10-Day Weather Forecast

Almanac

Astronomy

Apr. 27, 2017 Rise Set
Actual Time
Civil Twilight
Nautical Twilight
Astronomical Twilight
Moon
Length of Visible Light
Length of Day
Tomorrow will be .
, % of the Moon is Illuminated

Today's Extremes

State Highs State Lows

Community

WunderPhotos

WunderBlog® & News

Nearby

Air Quality

  Air Quality AQ Index Pollutant
Not available.

Snow Depth

Station Depth Elevation

Earthquake Activity

City Distance Mag. Time & Date
Minimum magnitude displayed is 2.5.

Coastal Water Temperatures

Place Temperature

Stations

Nearby Weather Stations

Station Location Temp. Windchill Dew Point Humidity Wind Precip. Elev Updated Type
                   

Watches & Warnings

There are currently no watches in effect.